Aeroporto :
LOGIN :

Iscrizione | Disclaimer

   EN    FR    IT 

 










Sommario :    VFR   VFR Marginale   IFR   IFR Intensivo   IFR Molto Intensivo
Visibilità : 
Base nubi : 
>= 8 km
>= 3000ft
5 / 8 km
1000 / 3000 ft
1500m / 5 km
500 / 1000 ft
800 / 1500m
200 / 500 ft
< 800m
< 200 ft
Simboli :   Temporali  Nebbia  Neve Forte  Precipitazioni Forti  Vento > 20 kt
SIGMETs :   Varie  Temporali  Ghiacco  Turbolenza  Onda orograficha  Ceneri Vulcaniche







- Altitudine del aeroporto : 290 ft
- Codice IATA : LAI
- Carte del aeroporto


LFRO - Lannion

ULTIMO METAR :
  • 210300Z AUTO 27021KT 9999 FEW026 SCT040 13/08 Q1010

METARs OBSOLETI :
  • 210230Z AUTO 28023KT 9999 BKN024 OVC032 14/10 Q1009
  • 210200Z AUTO 27023KT 9999 BKN025 BKN031 14/10 Q1009
  • 210130Z AUTO 26021KT 9999 BKN021 OVC240 15/12 Q1008
  • 210100Z AUTO 26020KT 9999 BKN022 BKN068 OVC240 15/12 Q1008

TAF TAF LFRO
Valido dal 20 a 12 ore il 21 a 12 ore UTC


201100Z 2012/2112 20019G30KT 9999 FEW025 OVC031
TEMPO 2020/2102 4000 RADZ OVC005
TEMPO 2022/2102 21023G35KT
BECMG 2102/2105 29017KT
Nessun NOTAM noto per questo aeroporto.
1 SIGMET conosciuto per la FIR Brest (LFRR) :
 
Turbolenza severa
LFRR SIGMET 1 VALID 210100/210500 LFPW
LFRR BREST FIR/UIR SEV TURB FCST WI N4945 W00400 - N5000 W00200 - N5000 W00015 - N4845 W00015 - N4700 W00300 - N4800 W00545 - N4945 W00400 SFC/FL060 MOV E 20KT NC=



MetMap, La meteo Aeronautica in un colpo d'occhio ! - Copyright ORBIFLY Dicembre 2007 - Disclaimer

ORBIFLY MET'MAP TEAM :

Programmazione e sviluppo : Alexandra Zaïnal
Concezione e sviluppo : Baudouin d'Aumeries
Co-Programmazione e sviluppo : Marc-Olivier Méhu
Supporto tecnico e logistico : Manuel Goepfert
Aiuto per la traduzione : Arnaldo La Scala

Contatto : metmap@orbifly.com




FONTI E CREDITI :

   NOAA